Time;durP1;ratioP1;P1;durP2;ratioP2;P2;SDS_P1;SDS_P2;PMS_P1;PMS_P2;Temp;Humidity;BMP_temperature;BMP_pressure;BME280_temperature;BME280_humidity;BME280_pressure;Samples;Min_cycle;Max_cycle;Signal;HPM_P1;HPM_P2
2023/07/10 00:02:09;;;;;;;13.90;5.88;;;19.00;99.90;;;;;;5081433;28;20070;-70
2023/07/10 00:04:35;;;;;;;12.88;5.65;;;19.00;99.90;;;;;;5068495;28;20306;-70
2023/07/10 00:07:01;;;;;;;12.63;5.88;;;19.10;99.90;;;;;;5082300;28;20040;-70
2023/07/10 00:09:27;;;;;;;11.63;5.70;;;19.10;99.90;;;;;;5093250;28;20393;-69
2023/07/10 00:11:52;;;;;;;14.35;6.05;;;19.00;99.90;;;;;;5089216;28;20178;-69
2023/07/10 00:14:24;;;;;;;12.25;6.22;;;19.00;99.90;;;;;;5086144;28;20044;-69
2023/07/10 00:16:51;;;;;;;13.10;6.03;;;19.00;99.90;;;;;;5084981;28;20039;-69
2023/07/10 00:19:17;;;;;;;13.13;5.43;;;19.10;99.90;;;;;;5061911;28;20037;-70
2023/07/10 00:21:42;;;;;;;10.07;5.18;;;19.00;99.90;;;;;;5086424;28;20068;-69
2023/07/10 00:24:08;;;;;;;15.85;5.97;;;19.00;99.90;;;;;;5089962;28;20566;-69
2023/07/10 00:26:37;;;;;;;9.95;5.53;;;18.90;99.90;;;;;;5085263;28;20809;-69
2023/07/10 00:29:15;;;;;;;14.07;5.68;;;18.90;99.90;;;;;;5086890;28;20035;-69
2023/07/10 00:31:41;;;;;;;11.52;6.13;;;18.90;99.90;;;;;;5086775;28;20032;-69
2023/07/10 00:34:14;;;;;;;16.83;6.53;;;18.90;99.90;;;;;;5067903;28;20508;-70
2023/07/10 00:36:41;;;;;;;13.45;6.90;;;18.90;99.90;;;;;;5070453;28;20041;-70
2023/07/10 00:39:24;;;;;;;13.25;6.72;;;18.90;99.90;;;;;;5090276;28;20032;-69
2023/07/10 00:42:00;;;;;;;13.80;6.38;;;18.90;99.90;;;;;;5086284;28;20481;-70
2023/07/10 00:44:32;;;;;;;13.35;6.65;;;18.90;99.90;;;;;;5085219;28;20115;-70
2023/07/10 00:47:06;;;;;;;10.02;5.50;;;18.90;99.90;;;;;;5089751;28;20159;-70
2023/07/10 00:49:55;;;;;;;11.10;5.88;;;18.90;99.90;;;;;;5086249;28;20047;-70
2023/07/10 00:52:26;;;;;;;11.48;6.05;;;18.90;99.90;;;;;;5084568;28;20096;-70
2023/07/10 00:54:56;;;;;;;8.93;5.90;;;18.90;99.90;;;;;;5089821;28;20079;-69
2023/07/10 00:57:33;;;;;;;10.90;5.88;;;18.90;99.90;;;;;;5075574;28;20489;-70
2023/07/10 01:00:00;;;;;;;13.43;5.93;;;18.90;99.90;;;;;;5083677;28;20040;-70
2023/07/10 01:02:25;;;;;;;10.45;5.78;;;18.90;99.90;;;;;;5083764;28;20037;-70
2023/07/10 01:04:59;;;;;;;13.82;6.80;;;18.90;99.90;;;;;;5081421;28;20090;-70
2023/07/10 01:07:29;;;;;;;16.80;5.93;;;18.80;99.90;;;;;;5089222;28;20119;-70
2023/07/10 01:10:03;;;;;;;9.98;5.55;;;18.90;99.90;;;;;;5079932;28;20115;-70
2023/07/10 01:12:30;;;;;;;12.50;6.30;;;18.90;99.90;;;;;;5077275;28;20406;-70
2023/07/10 01:14:55;;;;;;;11.55;6.05;;;18.90;99.90;;;;;;5086254;28;20083;-70
2023/07/10 01:17:21;;;;;;;11.15;5.15;;;18.90;99.90;;;;;;5067732;28;20082;-70
2023/07/10 01:19:49;;;;;;;12.93;5.43;;;18.90;99.90;;;;;;5073727;28;20051;-70
2023/07/10 01:22:15;;;;;;;14.95;6.38;;;18.90;99.90;;;;;;5084862;28;20439;-70
2023/07/10 01:24:41;;;;;;;16.23;6.85;;;18.90;99.90;;;;;;5071487;28;20134;-70
2023/07/10 01:27:12;;;;;;;10.07;5.60;;;18.90;99.90;;;;;;5072707;28;20434;-70
2023/07/10 01:29:44;;;;;;;13.50;6.30;;;18.90;99.90;;;;;;5079158;28;20126;-70
2023/07/10 01:32:13;;;;;;;12.95;6.40;;;18.90;99.90;;;;;;5075663;28;20070;-70
2023/07/10 01:35:02;;;;;;;13.60;7.40;;;18.90;99.90;;;;;;5059422;28;20049;-70
2023/07/10 01:37:28;;;;;;;11.63;6.25;;;18.90;99.90;;;;;;5078619;28;20075;-70
2023/07/10 01:39:54;;;;;;;14.93;6.50;;;18.90;99.90;;;;;;5087564;28;20078;-70
2023/07/10 01:42:20;;;;;;;13.05;7.10;;;18.90;99.90;;;;;;5079537;28;20036;-70
2023/07/10 01:44:48;;;;;;;12.68;6.18;;;18.90;99.90;;;;;;5060510;28;20032;-70
2023/07/10 01:47:15;;;;;;;15.90;6.95;;;19.00;99.90;;;;;;5087048;28;20089;-70
2023/07/10 01:49:44;;;;;;;12.98;6.60;;;19.00;99.90;;;;;;5082041;28;20509;-70
2023/07/10 01:52:12;;;;;;;12.98;6.55;;;19.00;99.90;;;;;;5076328;28;20036;-70
2023/07/10 01:54:38;;;;;;;13.30;6.55;;;19.00;99.90;;;;;;5074999;28;20048;-70
2023/07/10 01:57:09;;;;;;;13.35;6.28;;;19.00;99.90;;;;;;5079649;28;20390;-70
2023/07/10 01:59:35;;;;;;;11.98;6.05;;;19.00;99.90;;;;;;5065862;28;20028;-70
2023/07/10 02:02:01;;;;;;;14.35;7.80;;;19.00;99.90;;;;;;5085573;28;20040;-70
2023/07/10 02:04:27;;;;;;;16.02;7.25;;;19.00;99.90;;;;;;5073598;28;20052;-70
2023/07/10 02:06:55;;;;;;;15.25;7.40;;;19.00;99.90;;;;;;5072938;28;20036;-70
2023/07/10 02:09:26;;;;;;;16.42;7.65;;;19.00;99.90;;;;;;5081242;28;20040;-70
2023/07/10 02:11:52;;;;;;;15.02;6.78;;;19.00;99.90;;;;;;5069775;28;20131;-70
2023/07/10 02:14:18;;;;;;;22.88;7.95;;;19.00;99.90;;;;;;5089169;28;20504;-70
2023/07/10 02:16:44;;;;;;;18.17;7.82;;;19.00;99.90;;;;;;5063677;28;20048;-70
2023/07/10 02:19:10;;;;;;;18.42;8.02;;;19.00;99.90;;;;;;5068014;28;20033;-70
2023/07/10 02:21:36;;;;;;;14.18;7.70;;;19.00;99.90;;;;;;5084247;28;20712;-70
2023/07/10 02:24:02;;;;;;;14.48;7.97;;;19.00;99.90;;;;;;5087844;28;20036;-70
2023/07/10 02:26:29;;;;;;;13.55;8.07;;;18.90;99.90;;;;;;5084250;28;20558;-70
2023/07/10 02:28:55;;;;;;;16.80;8.25;;;19.00;99.90;;;;;;5088282;28;20044;-70
2023/07/10 02:31:21;;;;;;;15.10;8.02;;;18.90;99.90;;;;;;5082777;28;20349;-70
2023/07/10 02:33:47;;;;;;;19.83;8.32;;;18.90;99.90;;;;;;5063881;28;20047;-70
2023/07/10 02:36:13;;;;;;;15.40;7.60;;;18.90;99.90;;;;;;5079523;28;20120;-70
2023/07/10 02:38:38;;;;;;;17.27;7.85;;;18.90;99.90;;;;;;5087482;28;20504;-70
2023/07/10 02:41:04;;;;;;;14.63;8.35;;;18.90;99.90;;;;;;5086251;28;20051;-70
2023/07/10 02:43:30;;;;;;;17.98;7.97;;;18.90;99.90;;;;;;5089635;28;20512;-70
2023/07/10 02:45:56;;;;;;;12.68;7.05;;;18.90;99.90;;;;;;5086594;28;20105;-70
2023/07/10 02:48:21;;;;;;;20.35;8.45;;;18.90;99.90;;;;;;5076432;28;20186;-70
2023/07/10 02:50:47;;;;;;;16.15;8.52;;;18.80;99.90;;;;;;5052077;28;20041;-70
2023/07/10 02:53:13;;;;;;;16.00;7.75;;;18.90;99.90;;;;;;5085810;28;20032;-70
2023/07/10 02:55:38;;;;;;;15.60;8.55;;;18.80;99.90;;;;;;5055001;28;20059;-70
2023/07/10 02:58:05;;;;;;;16.92;7.65;;;18.80;99.90;;;;;;5087297;28;20559;-70
2023/07/10 03:00:31;;;;;;;15.25;8.27;;;18.80;99.90;;;;;;5084086;28;20036;-70
2023/07/10 03:02:56;;;;;;;16.85;7.88;;;18.80;99.90;;;;;;5086411;28;20511;-70
2023/07/10 03:05:23;;;;;;;13.10;8.05;;;18.80;99.90;;;;;;5076954;28;20567;-70
2023/07/10 03:07:49;;;;;;;16.80;8.27;;;18.80;99.90;;;;;;5081071;28;20237;-70
2023/07/10 03:10:16;;;;;;;19.83;8.50;;;18.80;99.90;;;;;;5061262;28;20337;-70
2023/07/10 03:12:41;;;;;;;15.05;8.00;;;18.80;99.90;;;;;;5051644;28;20027;-70
2023/07/10 03:15:08;;;;;;;15.75;8.10;;;18.80;99.90;;;;;;5073760;28;20451;-70
2023/07/10 03:17:33;;;;;;;15.32;7.88;;;18.70;99.90;;;;;;5086571;28;20067;-70
2023/07/10 03:19:59;;;;;;;16.25;7.85;;;18.80;99.90;;;;;;5081741;28;20028;-70
2023/07/10 03:22:25;;;;;;;16.23;9.00;;;18.70;99.90;;;;;;5085438;28;20046;-70
2023/07/10 03:24:55;;;;;;;18.02;8.68;;;18.70;99.90;;;;;;5080532;28;20359;-70
2023/07/10 03:27:21;;;;;;;15.23;7.93;;;18.70;99.90;;;;;;5074012;28;20762;-70
2023/07/10 03:29:47;;;;;;;15.15;8.35;;;18.70;99.90;;;;;;5087088;28;20658;-70
2023/07/10 03:32:13;;;;;;;18.25;8.73;;;18.70;99.90;;;;;;5071221;28;20543;-70
2023/07/10 03:34:38;;;;;;;15.02;8.50;;;18.70;99.90;;;;;;5056249;28;20490;-70
2023/07/10 03:37:05;;;;;;;19.17;8.82;;;18.70;99.90;;;;;;5080578;28;20052;-70
2023/07/10 03:39:31;;;;;;;15.52;9.05;;;18.70;99.90;;;;;;5084748;28;20401;-70
2023/07/10 03:41:57;;;;;;;19.83;9.00;;;18.70;99.90;;;;;;5071375;28;20089;-70
2023/07/10 03:44:22;;;;;;;19.75;9.13;;;18.70;99.90;;;;;;5083084;28;20035;-70
2023/07/10 03:46:48;;;;;;;17.70;8.43;;;18.70;99.90;;;;;;5086858;28;20059;-70
2023/07/10 03:49:14;;;;;;;18.20;8.32;;;18.60;99.90;;;;;;5083337;28;20119;-70
2023/07/10 03:51:40;;;;;;;14.48;8.07;;;18.50;99.90;;;;;;5065178;28;20653;-70
2023/07/10 03:54:07;;;;;;;15.75;8.30;;;18.60;99.90;;;;;;5061547;28;20213;-70
2023/07/10 03:56:33;;;;;;;17.25;8.63;;;18.60;99.90;;;;;;5052105;28;20113;-70
2023/07/10 03:58:59;;;;;;;16.85;8.10;;;18.60;99.90;;;;;;5086941;28;20040;-70
2023/07/10 04:01:25;;;;;;;20.08;8.85;;;18.60;99.90;;;;;;5085067;28;20040;-70
2023/07/10 04:03:51;;;;;;;17.17;8.95;;;18.60;99.90;;;;;;5076066;28;20449;-70
2023/07/10 04:06:17;;;;;;;15.75;8.20;;;18.60;99.90;;;;;;5071308;28;20041;-70
2023/07/10 04:08:44;;;;;;;15.75;8.18;;;18.60;99.90;;;;;;5067157;28;20052;-70
2023/07/10 04:11:17;;;;;;;16.42;8.00;;;18.60;99.90;;;;;;5083379;28;20036;-70
2023/07/10 04:13:43;;;;;;;19.42;7.60;;;18.60;99.90;;;;;;5087181;28;20028;-70
2023/07/10 04:16:24;;;;;;;19.63;8.02;;;18.60;99.90;;;;;;5081321;28;20089;-70
2023/07/10 04:18:51;;;;;;;17.75;8.82;;;18.60;99.90;;;;;;5088810;28;20051;-70
2023/07/10 04:21:24;;;;;;;18.65;8.50;;;18.60;99.90;;;;;;5067281;28;20227;-70
2023/07/10 04:23:50;;;;;;;17.88;8.90;;;18.70;99.90;;;;;;5086234;28;20051;-70
2023/07/10 04:26:23;;;;;;;18.08;7.97;;;18.70;99.90;;;;;;5085790;28;20056;-70
2023/07/10 04:28:51;;;;;;;14.80;8.05;;;18.70;99.90;;;;;;5084178;28;20048;-70
2023/07/10 04:31:18;;;;;;;14.75;7.43;;;18.70;99.90;;;;;;5086360;28;20039;-70
2023/07/10 04:33:44;;;;;;;15.25;7.43;;;18.70;99.90;;;;;;5067862;28;20115;-70
2023/07/10 04:36:12;;;;;;;13.15;7.38;;;18.70;99.90;;;;;;5062332;28;20099;-70
2023/07/10 04:38:37;;;;;;;11.13;6.60;;;18.70;99.90;;;;;;5058716;28;20529;-70
2023/07/10 04:41:06;;;;;;;13.32;7.03;;;18.70;99.90;;;;;;5086065;28;20054;-70
2023/07/10 04:43:34;;;;;;;13.80;7.35;;;18.70;99.90;;;;;;5071549;28;20044;-70
2023/07/10 04:46:02;;;;;;;12.25;5.72;;;18.70;99.90;;;;;;5083591;28;20280;-70
2023/07/10 04:48:29;;;;;;;12.02;6.10;;;18.70;99.90;;;;;;5087126;28;20044;-70
2023/07/10 04:50:56;;;;;;;12.20;6.18;;;18.70;99.90;;;;;;5068771;28;20075;-70
2023/07/10 04:53:22;;;;;;;11.05;5.97;;;18.70;99.90;;;;;;5082555;28;20043;-70
2023/07/10 04:55:49;;;;;;;12.07;5.97;;;18.70;99.90;;;;;;5077162;28;20126;-70
2023/07/10 04:58:16;;;;;;;11.40;6.18;;;18.70;99.90;;;;;;5087986;28;20035;-70
2023/07/10 05:00:43;;;;;;;11.02;5.95;;;18.70;99.90;;;;;;5089669;28;20430;-70
2023/07/10 05:03:09;;;;;;;10.07;5.53;;;18.70;99.90;;;;;;5081614;28;20068;-70
2023/07/10 05:05:35;;;;;;;10.75;6.15;;;18.70;99.90;;;;;;5075078;28;20049;-70
2023/07/10 05:08:01;;;;;;;10.93;5.93;;;18.70;99.90;;;;;;5081183;28;20443;-70
2023/07/10 05:10:27;;;;;;;12.38;6.45;;;18.70;99.90;;;;;;5088163;28;20043;-70
2023/07/10 05:12:53;;;;;;;9.20;4.93;;;18.70;99.90;;;;;;5087917;28;20500;-70
2023/07/10 05:15:20;;;;;;;10.63;5.97;;;18.70;99.90;;;;;;5064311;28;20067;-70
2023/07/10 05:17:46;;;;;;;10.18;5.38;;;18.70;99.90;;;;;;5071629;28;20087;-70
2023/07/10 05:20:12;;;;;;;10.20;5.13;;;18.70;99.90;;;;;;5073258;28;20036;-70
2023/07/10 05:22:39;;;;;;;10.50;5.40;;;18.70;99.90;;;;;;5086050;28;20098;-69
2023/07/10 05:25:05;;;;;;;10.98;5.03;;;18.70;99.90;;;;;;5083572;28;20058;-70
2023/07/10 05:27:31;;;;;;;10.00;5.60;;;18.70;99.90;;;;;;5081181;28;20043;-70
2023/07/10 05:29:56;;;;;;;8.43;4.72;;;18.70;99.90;;;;;;5081128;28;20122;-70
2023/07/10 05:32:22;;;;;;;10.25;5.97;;;18.70;99.90;;;;;;5075703;28;20036;-70
2023/07/10 05:34:47;;;;;;;11.95;5.82;;;18.70;99.90;;;;;;5078545;28;20537;-70
2023/07/10 05:37:13;;;;;;;11.18;5.57;;;18.70;99.90;;;;;;5067799;28;20037;-70
2023/07/10 05:39:39;;;;;;;12.05;5.70;;;18.70;99.90;;;;;;5077125;28;20111;-70
2023/07/10 05:42:06;;;;;;;7.85;5.10;;;18.80;99.90;;;;;;5081236;28;20040;-71
2023/07/10 05:44:31;;;;;;;10.35;5.05;;;18.70;99.90;;;;;;5073818;28;20371;-70
2023/07/10 05:46:57;;;;;;;11.93;5.45;;;18.70;99.90;;;;;;5064885;28;20055;-70
2023/07/10 05:49:24;;;;;;;8.60;4.82;;;18.70;99.90;;;;;;5071110;28;20390;-70
2023/07/10 05:51:52;;;;;;;8.02;4.85;;;18.80;99.90;;;;;;5071315;28;20490;-70
2023/07/10 05:54:21;;;;;;;8.23;3.90;;;18.80;99.90;;;;;;5067811;28;20041;-70
2023/07/10 05:56:47;;;;;;;6.82;3.30;;;18.80;99.90;;;;;;5050544;28;20103;-70
2023/07/10 05:59:14;;;;;;;6.28;3.30;;;18.90;99.90;;;;;;5051150;28;20049;-70
2023/07/10 06:01:40;;;;;;;7.60;3.20;;;18.90;99.90;;;;;;5078127;28;20044;-70
2023/07/10 06:04:05;;;;;;;5.47;2.78;;;18.90;99.90;;;;;;5071572;28;20503;-70
2023/07/10 06:06:31;;;;;;;5.40;2.92;;;18.90;99.90;;;;;;5071954;28;20044;-70
2023/07/10 06:08:56;;;;;;;7.13;2.78;;;18.90;99.90;;;;;;5080724;28;20037;-70
2023/07/10 06:11:22;;;;;;;6.28;2.63;;;18.90;99.90;;;;;;5037121;28;20098;-70
2023/07/10 06:13:47;;;;;;;5.18;2.70;;;19.00;99.90;;;;;;5071057;28;20458;-70
2023/07/10 06:16:14;;;;;;;3.95;2.00;;;19.00;99.90;;;;;;5070801;28;20051;-70
2023/07/10 06:18:40;;;;;;;4.75;2.22;;;18.90;99.90;;;;;;5071589;28;20050;-70
2023/07/10 06:21:07;;;;;;;6.97;2.63;;;19.00;99.90;;;;;;5070717;28;20102;-70
2023/07/10 06:23:33;;;;;;;6.20;2.55;;;19.00;99.90;;;;;;5087345;28;20047;-70
2023/07/10 06:25:59;;;;;;;4.45;2.38;;;19.00;99.90;;;;;;5070013;28;20094;-73
2023/07/10 06:28:25;;;;;;;5.32;2.13;;;19.00;99.90;;;;;;5066383;28;20080;-70
2023/07/10 06:30:56;;;;;;;5.10;2.08;;;19.00;99.90;;;;;;5073505;28;20028;-71
2023/07/10 06:33:22;;;;;;;4.65;2.08;;;19.10;99.90;;;;;;5083915;28;20040;-71
2023/07/10 06:35:48;;;;;;;7.20;1.65;;;19.10;99.90;;;;;;5068841;28;20127;-70
2023/07/10 06:38:13;;;;;;;3.55;1.40;;;19.20;99.90;;;;;;5070074;28;20415;-70
2023/07/10 06:40:39;;;;;;;4.53;1.73;;;19.20;99.90;;;;;;5062902;28;20070;-70
2023/07/10 06:43:04;;;;;;;4.97;1.73;;;19.30;99.90;;;;;;5067503;28;20036;-70
2023/07/10 06:45:30;;;;;;;2.75;1.73;;;19.30;99.90;;;;;;5086662;28;20043;-70
2023/07/10 06:47:55;;;;;;;4.18;1.80;;;19.30;99.90;;;;;;5082171;28;20047;-71
2023/07/10 06:50:21;;;;;;;3.80;1.60;;;19.30;99.90;;;;;;5071776;28;20041;-71
2023/07/10 06:52:46;;;;;;;3.25;1.45;;;19.40;99.90;;;;;;5070391;28;20123;-71
2023/07/10 06:55:16;;;;;;;4.80;1.70;;;19.50;99.90;;;;;;5072182;28;20465;-70
2023/07/10 06:57:42;;;;;;;6.22;1.88;;;19.60;99.90;;;;;;5070573;28;20080;-71
2023/07/10 07:00:11;;;;;;;4.53;1.40;;;19.70;99.90;;;;;;5069043;28;20052;-71
2023/07/10 07:02:37;;;;;;;4.80;1.50;;;19.70;99.90;;;;;;5058115;28;20420;-71
2023/07/10 07:05:05;;;;;;;2.83;1.15;;;19.70;99.90;;;;;;5050292;28;20128;-71
2023/07/10 07:07:30;;;;;;;4.03;1.52;;;19.60;99.90;;;;;;5071775;28;20398;-71
2023/07/10 07:09:56;;;;;;;2.42;1.33;;;19.50;99.90;;;;;;5070062;28;20055;-71
2023/07/10 07:12:21;;;;;;;3.97;1.20;;;19.50;99.90;;;;;;5072725;28;20124;-70
2023/07/10 07:14:47;;;;;;;5.05;1.30;;;19.50;99.90;;;;;;5071695;28;20040;-71
2023/07/10 07:17:14;;;;;;;2.45;1.30;;;19.50;99.90;;;;;;5078090;28;20039;-71
2023/07/10 07:19:44;;;;;;;6.57;1.40;;;19.60;99.90;;;;;;5066178;28;20078;-71
2023/07/10 07:22:10;;;;;;;2.70;1.10;;;19.60;99.90;;;;;;5082184;28;20112;-71
2023/07/10 07:24:36;;;;;;;3.22;1.10;;;19.70;99.90;;;;;;5080636;28;20130;-70
2023/07/10 07:27:02;;;;;;;5.22;1.27;;;19.70;99.90;;;;;;5066574;28;20044;-71
2023/07/10 07:29:28;;;;;;;4.10;1.20;;;19.70;99.90;;;;;;5072681;28;20382;-70
2023/07/10 07:31:54;;;;;;;5.75;1.33;;;19.70;99.90;;;;;;5078120;28;20119;-70
2023/07/10 07:34:19;;;;;;;4.75;1.48;;;19.70;99.90;;;;;;5076301;28;20437;-70
2023/07/10 07:36:48;;;;;;;4.93;1.45;;;19.70;99.90;;;;;;5083438;28;20036;-70
2023/07/10 07:39:15;;;;;;;2.75;1.20;;;19.70;99.90;;;;;;5070208;28;20071;-70
2023/07/10 07:41:41;;;;;;;3.20;1.55;;;19.70;99.90;;;;;;5091935;28;20028;-70
2023/07/10 07:44:07;;;;;;;5.45;1.25;;;19.80;99.90;;;;;;5064390;28;20399;-70
2023/07/10 07:46:32;;;;;;;6.03;1.50;;;19.80;99.90;;;;;;5085845;28;20044;-70
2023/07/10 07:48:58;;;;;;;2.10;1.10;;;19.80;99.90;;;;;;5082354;28;20029;-70
2023/07/10 07:51:24;;;;;;;2.42;1.02;;;19.80;99.90;;;;;;5071591;28;20029;-70
2023/07/10 07:54:03;;;;;;;4.70;0.95;;;19.90;99.90;;;;;;5080523;28;20485;-71
2023/07/10 07:56:29;;;;;;;4.57;1.40;;;19.90;99.90;;;;;;5053734;28;20482;-70
2023/07/10 07:58:54;;;;;;;2.13;1.20;;;19.90;99.90;;;;;;5082011;28;20096;-69
2023/07/10 08:01:20;;;;;;;5.50;1.50;;;19.90;99.90;;;;;;5083049;28;20061;-70
2023/07/10 08:03:46;;;;;;;10.48;1.38;;;19.90;99.90;;;;;;5067363;28;20094;-70
2023/07/10 08:06:11;;;;;;;6.05;1.10;;;19.90;99.90;;;;;;5064996;28;20116;-70
2023/07/10 08:08:38;;;;;;;3.95;1.48;;;20.00;99.90;;;;;;5080938;28;20048;-70
2023/07/10 08:11:07;;;;;;;2.75;1.13;;;20.00;99.90;;;;;;5078649;28;20047;-70
2023/07/10 08:13:33;;;;;;;3.13;1.05;;;20.10;99.90;;;;;;5040676;28;20040;-70
2023/07/10 08:15:59;;;;;;;4.35;1.10;;;20.10;99.90;;;;;;5071326;28;20085;-70
2023/07/10 08:18:26;;;;;;;4.03;0.93;;;20.10;99.90;;;;;;5056299;28;20694;-70
2023/07/10 08:21:01;;;;;;;7.50;1.63;;;20.10;99.90;;;;;;5064655;28;20540;-70
2023/07/10 08:23:27;;;;;;;4.63;1.23;;;20.10;99.90;;;;;;5064454;28;20120;-70
2023/07/10 08:25:52;;;;;;;3.65;1.02;;;20.20;99.90;;;;;;5072700;28;20049;-70
2023/07/10 08:28:18;;;;;;;4.88;1.10;;;20.20;99.90;;;;;;5065836;28;20045;-70
2023/07/10 08:30:48;;;;;;;3.95;0.88;;;20.20;99.90;;;;;;5074583;28;20055;-70
2023/07/10 08:33:16;;;;;;;3.63;1.02;;;20.30;99.90;;;;;;5082181;28;20111;-70
2023/07/10 08:35:42;;;;;;;2.65;1.02;;;20.40;99.90;;;;;;5061834;28;20536;-70
2023/07/10 08:38:08;;;;;;;2.50;1.00;;;20.40;99.90;;;;;;5081474;28;20052;-70
2023/07/10 08:40:40;;;;;;;3.83;1.10;;;20.40;99.90;;;;;;5088806;28;20033;-70
2023/07/10 08:43:37;;;;;;;4.78;1.70;;;20.50;99.90;;;;;;5072044;28;20044;-71
2023/07/10 08:46:18;;;;;;;5.00;1.45;;;20.50;99.90;;;;;;5052448;28;20467;-71
2023/07/10 08:49:05;;;;;;;5.00;1.25;;;20.50;99.90;;;;;;5052239;28;20037;-71
2023/07/10 08:51:57;;;;;;;3.28;1.30;;;20.60;99.90;;;;;;5073829;28;20041;-70
2023/07/10 08:54:23;;;;;;;3.28;1.00;;;20.60;99.90;;;;;;5064923;28;20041;-70
2023/07/10 08:57:25;;;;;;;5.90;1.25;;;20.70;99.90;;;;;;5072950;28;20158;-70
2023/07/10 09:00:11;;;;;;;3.70;1.02;;;20.80;99.90;;;;;;5087064;28;20119;-70
2023/07/10 09:02:53;;;;;;;4.13;1.35;;;20.80;99.90;;;;;;5071464;28;20052;-71
2023/07/10 09:05:32;;;;;;;3.95;1.23;;;20.80;99.90;;;;;;5055762;28;20044;-71
2023/07/10 09:08:06;;;;;;;2.67;1.30;;;20.80;99.90;;;;;;5053501;28;20128;-71
2023/07/10 09:10:40;;;;;;;5.72;1.15;;;20.70;99.90;;;;;;5065184;28;20048;-71
2023/07/10 09:13:24;;;;;;;3.95;1.25;;;20.60;99.90;;;;;;5060300;28;20064;-70
2023/07/10 09:15:55;;;;;;;5.82;1.20;;;20.60;99.90;;;;;;5070082;28;20107;-70
2023/07/10 09:18:30;;;;;;;3.30;1.25;;;20.60;99.90;;;;;;5086818;28;20059;-70
2023/07/10 09:21:06;;;;;;;5.38;1.10;;;20.70;99.90;;;;;;5086767;28;20320;-70
2023/07/10 09:23:33;;;;;;;3.40;1.00;;;20.70;99.90;;;;;;5071201;28;20497;-70
2023/07/10 09:26:13;;;;;;;4.20;1.27;;;20.80;99.90;;;;;;5086204;28;20066;-71
2023/07/10 09:28:41;;;;;;;4.13;0.82;;;20.90;99.90;;;;;;5071800;28;20036;-71
2023/07/10 09:31:48;;;;;;;3.20;1.10;;;21.00;99.90;;;;;;5083284;28;20043;-71
2023/07/10 09:34:14;;;;;;;3.88;0.93;;;21.20;99.90;;;;;;5034471;28;20106;-70
2023/07/10 09:36:40;;;;;;;4.43;1.20;;;21.30;99.90;;;;;;5071040;28;20040;-70
2023/07/10 09:39:06;;;;;;;4.70;1.42;;;21.40;99.90;;;;;;5069769;28;20128;-71
2023/07/10 09:41:32;;;;;;;3.83;1.33;;;21.40;99.90;;;;;;5070700;28;20120;-70
2023/07/10 09:44:12;;;;;;;3.42;1.38;;;21.30;99.90;;;;;;5060751;28;20061;-70
2023/07/10 09:46:38;;;;;;;5.50;1.38;;;21.30;99.90;;;;;;5072091;28;20056;-70
2023/07/10 09:49:13;;;;;;;5.80;1.50;;;21.20;99.90;;;;;;5069810;28;20444;-71
2023/07/10 09:51:49;;;;;;;;;;;21.20;99.90;;;;;;5071701;28;20085;-70
2023/07/10 09:54:15;;;;;;;6.28;1.40;;;21.30;99.90;;;;;;5066804;28;19927;-70
2023/07/10 09:56:41;;;;;;;4.55;1.08;;;21.30;99.90;;;;;;5075124;28;20039;-70
2023/07/10 09:59:20;;;;;;;6.18;1.50;;;21.40;99.90;;;;;;5081075;28;20743;-71
2023/07/10 10:01:50;;;;;;;2.67;1.13;;;21.40;99.90;;;;;;5073214;28;20383;-70
2023/07/10 10:04:28;;;;;;;4.22;1.50;;;21.40;99.90;;;;;;5059475;28;20033;-71
2023/07/10 10:07:03;;;;;;;3.20;1.15;;;21.30;99.90;;;;;;5058399;28;20118;-70
2023/07/10 10:09:30;;;;;;;7.00;1.40;;;21.20;99.90;;;;;;5070566;28;20041;-70
2023/07/10 10:12:03;;;;;;;4.35;1.83;;;21.20;99.90;;;;;;5067697;28;20029;-70
2023/07/10 10:15:11;;;;;;;4.00;1.73;;;21.20;99.90;;;;;;5066863;28;20073;-70
2023/07/10 10:17:42;;;;;;;3.15;1.10;;;21.20;99.90;;;;;;5048526;28;20048;-70
2023/07/10 10:20:29;;;;;;;5.40;1.40;;;21.10;99.90;;;;;;5071956;28;20032;-70
2023/07/10 10:22:55;;;;;;;2.15;1.17;;;21.20;99.90;;;;;;5071028;28;20111;-70
2023/07/10 10:25:32;;;;;;;3.70;1.10;;;21.20;99.90;;;;;;5069480;28;20063;-70
2023/07/10 10:28:15;;;;;;;4.90;1.20;;;21.30;99.90;;;;;;5078206;28;20268;-70
2023/07/10 10:31:00;;;;;;;3.22;1.45;;;21.40;99.90;;;;;;5083939;28;20045;-71
2023/07/10 10:33:40;;;;;;;4.03;1.30;;;21.50;99.90;;;;;;5063946;28;20040;-70
2023/07/10 10:36:42;;;;;;;3.08;1.10;;;21.60;99.90;;;;;;5065304;28;20601;-70
2023/07/10 10:39:07;;;;;;;4.05;1.10;;;21.70;99.90;;;;;;5079418;28;20059;-70
2023/07/10 10:41:51;;;;;;;6.05;1.48;;;21.70;99.90;;;;;;5065291;28;20032;-70
2023/07/10 10:44:21;;;;;;;5.10;1.10;;;21.80;99.90;;;;;;5066595;28;20086;-70
2023/07/10 10:47:03;;;;;;;3.35;1.08;;;21.90;99.90;;;;;;5065375;28;20032;-70
2023/07/10 10:49:53;;;;;;;4.90;1.50;;;21.80;99.90;;;;;;5064669;28;20073;-70
2023/07/10 10:52:59;;;;;;;4.18;1.27;;;21.70;99.90;;;;;;5063213;28;20064;-70
2023/07/10 10:55:48;;;;;;;4.55;1.23;;;21.60;99.90;;;;;;5054296;28;20037;-70
2023/07/10 10:58:41;;;;;;;6.82;0.98;;;21.60;99.90;;;;;;5068806;28;20035;-70
2023/07/10 11:01:47;;;;;;;2.92;1.08;;;21.60;99.90;;;;;;5070091;28;20100;-70
2023/07/10 11:04:26;;;;;;;4.53;1.25;;;21.60;99.90;;;;;;5065166;28;20036;-70
2023/07/10 11:06:58;;;;;;;4.55;1.17;;;21.60;99.90;;;;;;5078061;28;20032;-70
2023/07/10 11:09:31;;;;;;;8.88;1.50;;;21.50;99.90;;;;;;5075918;28;20662;-70
2023/07/10 11:11:59;;;;;;;4.75;1.23;;;21.60;99.90;;;;;;5066147;28;20044;-69
2023/07/10 11:14:27;;;;;;;3.13;1.10;;;21.70;99.90;;;;;;5068509;28;20033;-70
2023/07/10 11:16:54;;;;;;;3.22;0.90;;;21.70;99.90;;;;;;5080148;28;20123;-70
2023/07/10 11:19:30;;;;;;;6.07;1.00;;;21.70;99.90;;;;;;5081502;28;20495;-70
2023/07/10 11:21:56;;;;;;;4.38;1.15;;;21.60;99.90;;;;;;5066453;28;20056;-70
2023/07/10 11:24:31;;;;;;;3.90;0.88;;;21.70;99.90;;;;;;5073203;28;20033;-70
2023/07/10 11:27:19;;;;;;;1.45;0.75;;;21.80;99.90;;;;;;5062551;28;20087;-70
2023/07/10 11:29:54;;;;;;;2.60;0.77;;;21.90;99.90;;;;;;5050570;28;20120;-70
2023/07/10 11:32:24;;;;;;;7.35;1.02;;;21.90;99.90;;;;;;5050279;28;20041;-70
2023/07/10 11:34:54;;;;;;;3.38;0.80;;;21.70;99.90;;;;;;5052731;28;20048;-70
2023/07/10 11:37:41;;;;;;;3.97;1.00;;;21.90;99.90;;;;;;5085592;28;20037;-70
2023/07/10 11:40:31;;;;;;;4.15;0.90;;;21.80;99.90;;;;;;5065341;28;20036;-70
2023/07/10 11:43:34;;;;;;;2.30;0.80;;;21.80;99.90;;;;;;5057094;28;20047;-70
2023/07/10 11:46:17;;;;;;;6.35;1.02;;;21.60;99.90;;;;;;5051203;28;20448;-70
2023/07/10 11:49:00;;;;;;;3.97;1.02;;;21.60;99.90;;;;;;5064489;28;20124;-70
2023/07/10 11:51:28;;;;;;;5.15;1.10;;;21.60;99.90;;;;;;5075281;28;20401;-70
2023/07/10 11:54:08;;;;;;;5.05;1.10;;;21.70;99.90;;;;;;5071247;28;20071;-69
2023/07/10 11:56:34;;;;;;;6.85;0.93;;;21.70;99.90;;;;;;5072487;28;20062;-69
2023/07/10 11:59:14;;;;;;;3.22;0.90;;;21.80;99.90;;;;;;5077095;28;20442;-69
2023/07/10 12:01:41;;;;;;;4.90;0.88;;;21.90;99.90;;;;;;5067343;28;20040;-70
2023/07/10 12:04:18;;;;;;;2.88;0.70;;;21.90;99.90;;;;;;5074691;28;20049;-70
2023/07/10 12:06:45;;;;;;;0.93;0.40;;;21.90;99.90;;;;;;5059822;28;20150;-70
2023/07/10 12:09:11;;;;;;;1.25;0.60;;;22.00;99.90;;;;;;5055577;28;20389;-70
2023/07/10 12:11:38;;;;;;;1.98;0.85;;;22.00;99.90;;;;;;5081943;28;20043;-70
2023/07/10 12:14:17;;;;;;;5.68;1.10;;;22.10;99.90;;;;;;5058103;28;20485;-70
2023/07/10 12:16:53;;;;;;;2.92;0.80;;;22.10;99.90;;;;;;5053350;28;20419;-70
2023/07/10 12:19:30;;;;;;;1.52;0.65;;;22.10;99.90;;;;;;5080231;28;20611;-70
2023/07/10 12:21:59;;;;;;;2.80;0.60;;;22.00;99.90;;;;;;5062002;28;20059;-71
2023/07/10 12:24:25;;;;;;;1.38;0.50;;;22.00;99.90;;;;;;5060816;28;20502;-71
2023/07/10 12:26:53;;;;;;;2.70;1.10;;;22.10;99.90;;;;;;5061088;28;20056;-70
2023/07/10 12:29:18;;;;;;;4.60;0.70;;;22.10;99.90;;;;;;5077843;28;20036;-70
2023/07/10 12:31:45;;;;;;;2.40;0.60;;;22.10;99.70;;;;;;5074734;28;20736;-70
2023/07/10 12:34:30;;;;;;;3.25;0.80;;;22.10;99.60;;;;;;5072830;28;20040;-70
2023/07/10 12:36:58;;;;;;;2.47;0.80;;;22.10;96.90;;;;;;5051794;28;20065;-71
2023/07/10 12:39:24;;;;;;;3.63;0.80;;;22.10;99.40;;;;;;5072271;28;20505;-70
2023/07/10 12:41:54;;;;;;;1.33;0.63;;;22.10;99.20;;;;;;5076738;28;20048;-71
2023/07/10 12:44:25;;;;;;;2.13;0.75;;;22.20;99.20;;;;;;5078679;28;20043;-70
2023/07/10 12:46:57;;;;;;;4.00;0.80;;;22.10;99.20;;;;;;5074517;28;20083;-70
2023/07/10 12:49:28;;;;;;;2.55;0.88;;;22.10;99.00;;;;;;5070673;28;20032;-70
2023/07/10 12:51:54;;;;;;;2.28;0.60;;;22.10;98.90;;;;;;5066171;28;20086;-70
2023/07/10 12:54:28;;;;;;;6.07;0.55;;;22.10;99.00;;;;;;5074138;28;20557;-71
2023/07/10 12:56:54;;;;;;;3.92;0.80;;;22.20;98.90;;;;;;5071344;28;20051;-70
2023/07/10 12:59:32;;;;;;;1.27;0.43;;;22.30;99.00;;;;;;5078742;28;20107;-70